sensor_id;sensor_type;location;lat;lon;timestamp;P1;durP1;ratioP1;P2;durP2;ratioP2
52438;SDS011;73188;52.948;6.012;2023-11-22T07:54:46;59.85;;;22.80;;
52438;SDS011;73188;52.948;6.012;2023-11-22T08:30:12;50.85;;;22.27;;
52438;SDS011;73188;52.948;6.012;2023-11-22T08:41:45;58.05;;;23.98;;
52438;SDS011;73188;52.948;6.012;2023-11-22T08:52:29;55.08;;;23.58;;
52438;SDS011;73188;52.948;6.012;2023-11-22T09:04:29;50.65;;;22.70;;
52438;SDS011;73188;52.948;6.012;2023-11-22T09:26:55;48.20;;;21.63;;
52438;SDS011;73188;52.948;6.012;2023-11-22T09:37:30;47.10;;;22.20;;
52438;SDS011;73188;52.948;6.012;2023-11-22T09:47:58;43.72;;;20.70;;
52438;SDS011;73188;52.948;6.012;2023-11-22T10:09:21;39.47;;;20.05;;
52438;SDS011;73188;52.948;6.012;2023-11-22T10:19:52;40.10;;;20.02;;
52438;SDS011;73188;52.948;6.012;2023-11-22T10:30:20;36.00;;;18.35;;
52438;SDS011;73188;52.948;6.012;2023-11-22T10:40:46;37.05;;;19.38;;
52438;SDS011;73188;52.948;6.012;2023-11-22T11:02:23;27.10;;;14.27;;
52438;SDS011;73188;52.948;6.012;2023-11-22T11:25:42;26.38;;;15.68;;
52438;SDS011;73188;52.948;6.012;2023-11-22T11:48:36;23.98;;;14.55;;
52438;SDS011;73188;52.948;6.012;2023-11-22T12:11:05;24.57;;;12.80;;
52438;SDS011;73188;52.948;6.012;2023-11-22T12:21:36;23.05;;;12.70;;
52438;SDS011;73188;52.948;6.012;2023-11-22T12:32:09;21.15;;;13.07;;
52438;SDS011;73188;52.948;6.012;2023-11-22T12:54:04;19.63;;;12.25;;
52438;SDS011;73188;52.948;6.012;2023-11-22T13:04:58;21.08;;;12.05;;
52438;SDS011;73188;52.948;6.012;2023-11-22T13:15:42;20.55;;;12.82;;
52438;SDS011;73188;52.948;6.012;2023-11-22T13:26:11;20.08;;;12.13;;
52438;SDS011;73188;52.948;6.012;2023-11-22T13:36:49;24.38;;;13.73;;
52438;SDS011;73188;52.948;6.012;2023-11-22T13:47:15;27.58;;;14.55;;
52438;SDS011;73188;52.948;6.012;2023-11-22T13:57:41;25.52;;;15.60;;
52438;SDS011;73188;52.948;6.012;2023-11-22T14:08:13;28.02;;;15.77;;
52438;SDS011;73188;52.948;6.012;2023-11-22T14:19:26;28.80;;;15.40;;
52438;SDS011;73188;52.948;6.012;2023-11-22T14:29:54;28.50;;;16.13;;
52438;SDS011;73188;52.948;6.012;2023-11-22T14:51:17;29.45;;;15.23;;
52438;SDS011;73188;52.948;6.012;2023-11-22T15:01:46;26.30;;;14.23;;
52438;SDS011;73188;52.948;6.012;2023-11-22T15:12:39;26.42;;;13.90;;
52438;SDS011;73188;52.948;6.012;2023-11-22T15:34:07;23.85;;;14.27;;
52438;SDS011;73188;52.948;6.012;2023-11-22T15:56:39;23.48;;;13.80;;
52438;SDS011;73188;52.948;6.012;2023-11-22T16:18:56;26.38;;;15.77;;
52438;SDS011;73188;52.948;6.012;2023-11-22T16:29:24;31.05;;;17.05;;
52438;SDS011;73188;52.948;6.012;2023-11-22T16:40:15;50.47;;;21.37;;
52438;SDS011;73188;52.948;6.012;2023-11-22T16:50:41;46.60;;;23.88;;
52438;SDS011;73188;52.948;6.012;2023-11-22T17:01:15;43.35;;;23.23;;
52438;SDS011;73188;52.948;6.012;2023-11-22T17:12:06;126.97;;;44.17;;
52438;SDS011;73188;52.948;6.012;2023-11-22T17:22:53;44.78;;;23.77;;
52438;SDS011;73188;52.948;6.012;2023-11-22T17:44:07;33.88;;;20.08;;
52438;SDS011;73188;52.948;6.012;2023-11-22T17:54:34;39.80;;;22.50;;
52438;SDS011;73188;52.948;6.012;2023-11-22T18:05:04;45.20;;;23.88;;
52438;SDS011;73188;52.948;6.012;2023-11-22T18:15:41;46.15;;;24.85;;
52438;SDS011;73188;52.948;6.012;2023-11-22T18:26:14;53.83;;;26.67;;
52438;SDS011;73188;52.948;6.012;2023-11-22T18:36:46;56.63;;;28.60;;
52438;SDS011;73188;52.948;6.012;2023-11-22T18:47:43;67.22;;;32.42;;
52438;SDS011;73188;52.948;6.012;2023-11-22T18:58:30;64.40;;;30.13;;
52438;SDS011;73188;52.948;6.012;2023-11-22T19:09:07;59.70;;;29.45;;
52438;SDS011;73188;52.948;6.012;2023-11-22T19:19:42;66.60;;;31.77;;
52438;SDS011;73188;52.948;6.012;2023-11-22T19:30:10;70.07;;;31.83;;
52438;SDS011;73188;52.948;6.012;2023-11-22T19:40:41;67.57;;;32.05;;
52438;SDS011;73188;52.948;6.012;2023-11-22T19:51:15;91.30;;;37.25;;
52438;SDS011;73188;52.948;6.012;2023-11-22T20:01:41;95.03;;;37.17;;
52438;SDS011;73188;52.948;6.012;2023-11-22T20:12:52;105.10;;;39.53;;
52438;SDS011;73188;52.948;6.012;2023-11-22T21:02:03;106.40;;;39.30;;
52438;SDS011;73188;52.948;6.012;2023-11-22T21:36:11;154.48;;;43.38;;
52438;SDS011;73188;52.948;6.012;2023-11-22T21:46:40;143.20;;;46.63;;
52438;SDS011;73188;52.948;6.012;2023-11-22T21:57:35;160.27;;;46.97;;
52438;SDS011;73188;52.948;6.012;2023-11-22T22:20:52;175.57;;;51.78;;
52438;SDS011;73188;52.948;6.012;2023-11-22T22:31:53;176.07;;;51.30;;
52438;SDS011;73188;52.948;6.012;2023-11-22T23:05:51;104.95;;;32.45;;
52438;SDS011;73188;52.948;6.012;2023-11-22T23:16:25;81.00;;;29.13;;
52438;SDS011;73188;52.948;6.012;2023-11-22T23:40:23;51.92;;;20.98;;
52438;SDS011;73188;52.948;6.012;2023-11-22T23:51:31;45.78;;;14.63;;
